Time,TemperatureF,DewpointF,PressureIn,WindDirection,WindDirectionDegrees,WindSpeedMPH,WindSpeedGustMPH,Humidity,HourlyPrecipIn,Conditions,Clouds,dailyrainin,SolarRadiationWatts/m^2,SoftwareType,DateUTC
2013-05-14 00:02:00,37.0,27.0,-100.00,SSE,157,1.0,7.0,68,0.00,,,0.00,1.000000,,2013-05-14 04:02:00,
2013-05-14 00:32:00,37.0,27.0,-100.00,SSE,157,1.0,7.0,68,0.00,,,0.00,1.000000,,2013-05-14 04:32:00,
2013-05-14 00:43:00,37.0,27.0,-100.00,SSE,157,1.0,7.0,68,0.00,,,0.00,1.000000,,2013-05-14 04:43:00,
2013-05-14 00:53:00,37.0,27.0,-100.00,SSE,157,1.0,7.0,68,0.00,,,0.00,1.000000,,2013-05-14 04:53:00,
2013-05-14 01:22:00,38.0,27.0,-100.00,ENE,73,2.0,7.0,64,0.00,,,0.00,1.000000,,2013-05-14 05:22:00,
2013-05-14 01:32:00,38.0,27.0,-100.00,ENE,73,2.0,7.0,64,0.00,,,0.00,1.000000,,2013-05-14 05:32:00,
2013-05-14 01:42:00,38.0,27.0,-100.00,ENE,73,2.0,7.0,64,0.00,,,0.00,1.000000,,2013-05-14 05:42:00,
2013-05-14 01:52:00,38.0,27.0,-100.00,ENE,73,2.0,7.0,64,0.00,,,0.00,1.000000,,2013-05-14 05:52:00,
2013-05-14 02:01:00,38.0,27.0,-100.00,ENE,73,2.0,7.0,64,0.00,,,0.00,1.000000,,2013-05-14 06:01:00,
2013-05-14 02:02:00,35.0,26.0,-100.00,ENE,68,2.0,5.0,70,0.00,,,0.00,1.000000,,2013-05-14 06:02:00,
2013-05-14 02:32:00,35.0,26.0,-100.00,ENE,68,2.0,5.0,70,0.00,,,0.00,1.000000,,2013-05-14 06:32:00,
2013-05-14 02:42:00,35.0,26.0,-100.00,ENE,68,2.0,5.0,70,0.00,,,0.00,1.000000,,2013-05-14 06:42:00,
2013-05-14 02:52:00,35.0,26.0,-100.00,ENE,68,2.0,5.0,70,0.00,,,0.00,1.000000,,2013-05-14 06:52:00,
2013-05-14 03:02:00,34.0,25.0,-100.00,North,350,3.0,7.0,70,0.00,,,0.00,1.000000,,2013-05-14 07:02:00,
2013-05-14 03:32:00,34.0,25.0,-100.00,North,350,3.0,7.0,70,0.00,,,0.00,1.000000,,2013-05-14 07:32:00,
2013-05-14 03:42:00,34.0,25.0,-100.00,North,350,3.0,7.0,70,0.00,,,0.00,1.000000,,2013-05-14 07:42:00,
2013-05-14 03:52:00,34.0,25.0,-100.00,North,350,3.0,7.0,70,0.00,,,0.00,1.000000,,2013-05-14 07:52:00,
2013-05-14 04:02:00,34.0,25.0,-100.00,NNE,24,1.0,6.0,70,0.00,,,0.00,1.000000,,2013-05-14 08:02:00,
2013-05-14 04:22:00,34.0,25.0,-100.00,NNE,24,1.0,6.0,70,0.00,,,0.00,1.000000,,2013-05-14 08:22:00,
2013-05-14 04:32:00,34.0,25.0,-100.00,NNE,24,1.0,6.0,70,0.00,,,0.00,1.000000,,2013-05-14 08:32:00,
2013-05-14 04:42:00,34.0,25.0,-100.00,NNE,24,1.0,6.0,70,0.00,,,0.00,1.000000,,2013-05-14 08:42:00,
2013-05-14 04:52:00,34.0,25.0,-100.00,NNE,24,1.0,6.0,70,0.00,,,0.00,1.000000,,2013-05-14 08:52:00,
2013-05-14 05:02:00,35.0,26.0,-100.00,NW,323,1.0,5.0,69,0.00,,,0.00,1.000000,,2013-05-14 09:02:00,
2013-05-14 05:33:00,35.0,26.0,-100.00,NW,323,1.0,5.0,69,0.00,,,0.00,1.000000,,2013-05-14 09:33:00,
2013-05-14 05:44:00,35.0,26.0,-100.00,NW,323,1.0,5.0,69,0.00,,,0.00,1.000000,,2013-05-14 09:44:00,
2013-05-14 05:54:00,35.0,26.0,-100.00,NW,323,1.0,5.0,69,0.00,,,0.00,1.000000,,2013-05-14 09:54:00,
2013-05-14 06:02:00,36.0,25.0,-100.00,WNW,296,2.0,7.0,65,0.00,,,0.00,5.000000,,2013-05-14 10:02:00,
2013-05-14 06:33:00,36.0,25.0,-100.00,WNW,296,2.0,7.0,65,0.00,,,0.00,5.000000,,2013-05-14 10:33:00,
2013-05-14 06:42:00,36.0,25.0,-100.00,WNW,296,2.0,7.0,65,0.00,,,0.00,5.000000,,2013-05-14 10:42:00,
2013-05-14 06:53:00,36.0,25.0,-100.00,WNW,296,2.0,7.0,65,0.00,,,0.00,5.000000,,2013-05-14 10:53:00,
2013-05-14 07:02:00,36.0,26.0,-100.00,West,278,0.0,3.0,68,0.00,,,0.00,38.000000,,2013-05-14 11:02:00,
2013-05-14 07:32:00,36.0,26.0,-100.00,West,278,0.0,3.0,68,0.00,,,0.00,38.000000,,2013-05-14 11:32:00,
2013-05-14 07:43:00,36.0,26.0,-100.00,West,278,0.0,3.0,68,0.00,,,0.00,38.000000,,2013-05-14 11:43:00,
2013-05-14 07:53:00,36.0,26.0,-100.00,West,278,0.0,3.0,68,0.00,,,0.00,38.000000,,2013-05-14 11:53:00,
2013-05-14 08:22:00,45.0,28.0,-100.00,West,261,2.0,8.0,51,0.00,,,0.00,253.000000,,2013-05-14 12:22:00,
2013-05-14 08:32:00,45.0,28.0,-100.00,West,261,2.0,8.0,51,0.00,,,0.00,253.000000,,2013-05-14 12:32:00,
2013-05-14 08:42:00,45.0,28.0,-100.00,West,261,2.0,8.0,51,0.00,,,0.00,253.000000,,2013-05-14 12:42:00,
2013-05-14 08:52:00,45.0,28.0,-100.00,West,261,2.0,8.0,51,0.00,,,0.00,253.000000,,2013-05-14 12:52:00,
2013-05-14 09:01:00,45.0,28.0,-100.00,West,261,2.0,8.0,51,0.00,,,0.00,253.000000,,2013-05-14 13:01:00,
2013-05-14 09:22:00,46.0,25.0,-100.00,NNW,337,4.0,13.0,44,0.00,,,0.00,459.000000,,2013-05-14 13:22:00,
2013-05-14 09:32:00,46.0,25.0,-100.00,NNW,337,4.0,13.0,44,0.00,,,0.00,459.000000,,2013-05-14 13:32:00,
2013-05-14 09:42:00,46.0,25.0,-100.00,NNW,337,4.0,13.0,44,0.00,,,0.00,459.000000,,2013-05-14 13:42:00,
2013-05-14 09:52:00,46.0,25.0,-100.00,NNW,337,4.0,13.0,44,0.00,,,0.00,459.000000,,2013-05-14 13:52:00,
2013-05-14 10:01:00,46.0,25.0,-100.00,NNW,337,4.0,13.0,44,0.00,,,0.00,459.000000,,2013-05-14 14:01:00,
2013-05-14 10:22:00,47.0,23.0,-100.00,NNW,331,4.0,13.0,39,0.00,,,-99.99,413.000000,,2013-05-14 14:22:00,
2013-05-14 10:32:00,47.0,23.0,-100.00,NNW,331,4.0,13.0,39,0.00,,,-99.99,413.000000,,2013-05-14 14:32:00,
2013-05-14 10:42:00,47.0,23.0,-100.00,NNW,331,4.0,13.0,39,0.00,,,-99.99,413.000000,,2013-05-14 14:42:00,
2013-05-14 10:53:00,47.0,23.0,-100.00,NNW,331,4.0,13.0,39,0.00,,,-99.99,413.000000,,2013-05-14 14:53:00,
2013-05-14 11:01:00,47.0,23.0,-100.00,NNW,331,4.0,13.0,39,0.00,,,-99.99,413.000000,,2013-05-14 15:01:00,
2013-05-14 11:02:00,47.0,24.0,-100.00,NNW,334,4.0,14.0,40,0.00,,,0.00,387.000000,,2013-05-14 15:02:00,
2013-05-14 11:33:00,47.0,24.0,-100.00,NNW,334,4.0,14.0,40,0.00,,,0.00,387.000000,,2013-05-14 15:33:00,
2013-05-14 11:43:00,47.0,24.0,-100.00,NNW,334,4.0,14.0,40,0.00,,,0.00,387.000000,,2013-05-14 15:43:00,
2013-05-14 11:53:00,47.0,24.0,-100.00,NNW,334,4.0,14.0,40,0.00,,,0.00,387.000000,,2013-05-14 15:53:00,
2013-05-14 12:02:00,48.0,23.0,-100.00,NW,322,5.0,14.0,37,0.00,,,0.00,425.000000,,2013-05-14 16:02:00,
2013-05-14 12:33:00,48.0,23.0,-100.00,NW,322,5.0,14.0,37,0.00,,,0.00,425.000000,,2013-05-14 16:33:00,
2013-05-14 12:44:00,48.0,23.0,-100.00,NW,322,5.0,14.0,37,0.00,,,0.00,425.000000,,2013-05-14 16:44:00,
2013-05-14 12:54:00,48.0,23.0,-100.00,NW,322,5.0,14.0,37,0.00,,,0.00,425.000000,,2013-05-14 16:54:00,
2013-05-14 13:02:00,48.0,25.0,-100.00,West,273,4.0,11.0,41,0.00,,,0.00,363.000000,,2013-05-14 17:02:00,
2013-05-14 13:24:00,48.0,25.0,-100.00,West,273,4.0,11.0,41,0.00,,,0.00,363.000000,,2013-05-14 17:24:00,
2013-05-14 13:33:00,48.0,25.0,-100.00,West,273,4.0,11.0,41,0.00,,,0.00,363.000000,,2013-05-14 17:33:00,
2013-05-14 13:43:00,48.0,25.0,-100.00,West,273,4.0,11.0,41,0.00,,,0.00,363.000000,,2013-05-14 17:43:00,
2013-05-14 13:52:00,48.0,25.0,-100.00,West,273,4.0,11.0,41,0.00,,,0.00,363.000000,,2013-05-14 17:52:00,
2013-05-14 14:32:00,50.0,25.0,-100.00,WSW,258,5.0,12.0,37,0.00,,,-99.99,437.000000,,2013-05-14 18:32:00,
2013-05-14 14:42:00,50.0,25.0,-100.00,WSW,258,5.0,12.0,37,0.00,,,-99.99,437.000000,,2013-05-14 18:42:00,
2013-05-14 14:52:00,50.0,25.0,-100.00,WSW,258,5.0,12.0,37,0.00,,,-99.99,437.000000,,2013-05-14 18:52:00,
2013-05-14 15:01:00,50.0,25.0,-100.00,WSW,258,5.0,12.0,37,0.00,,,-99.99,437.000000,,2013-05-14 19:01:00,
2013-05-14 15:02:00,48.0,25.0,-100.00,NW,317,5.0,13.0,41,0.00,,,0.00,380.000000,,2013-05-14 19:02:00,
2013-05-14 15:32:00,48.0,25.0,-100.00,NW,317,5.0,13.0,41,0.00,,,0.00,380.000000,,2013-05-14 19:32:00,
2013-05-14 15:42:00,48.0,25.0,-100.00,NW,317,5.0,13.0,41,0.00,,,0.00,380.000000,,2013-05-14 19:42:00,
2013-05-14 15:53:00,48.0,25.0,-100.00,NW,317,5.0,13.0,41,0.00,,,0.00,380.000000,,2013-05-14 19:53:00,
2013-05-14 16:02:00,51.0,25.0,-100.00,NNW,337,7.0,13.0,36,0.00,,,0.00,529.000000,,2013-05-14 20:02:00,
2013-05-14 16:33:00,51.0,25.0,-100.00,NNW,337,7.0,13.0,36,0.00,,,0.00,529.000000,,2013-05-14 20:33:00,
2013-05-14 16:44:00,51.0,25.0,-100.00,NNW,337,7.0,13.0,36,0.00,,,0.00,529.000000,,2013-05-14 20:44:00,
2013-05-14 16:52:00,51.0,25.0,-100.00,NNW,337,7.0,13.0,36,0.00,,,0.00,529.000000,,2013-05-14 20:52:00,
2013-05-14 17:02:00,49.0,27.0,-100.00,WNW,301,4.0,11.0,42,0.00,,,0.00,246.000000,,2013-05-14 21:02:00,
2013-05-14 17:34:00,49.0,27.0,-100.00,WNW,301,4.0,11.0,42,0.00,,,0.00,246.000000,,2013-05-14 21:34:00,
2013-05-14 17:43:00,49.0,27.0,-100.00,WNW,301,4.0,11.0,42,0.00,,,0.00,246.000000,,2013-05-14 21:43:00,
2013-05-14 17:53:00,49.0,27.0,-100.00,WNW,301,4.0,11.0,42,0.00,,,0.00,246.000000,,2013-05-14 21:53:00,
2013-05-14 18:02:00,51.0,26.0,-100.00,NNW,342,4.0,15.0,37,0.00,,,0.00,291.000000,,2013-05-14 22:02:00,
2013-05-14 18:35:00,51.0,26.0,-100.00,NNW,342,4.0,15.0,37,0.00,,,0.00,291.000000,,2013-05-14 22:35:00,
2013-05-14 18:45:00,51.0,26.0,-100.00,NNW,342,4.0,15.0,37,0.00,,,0.00,291.000000,,2013-05-14 22:45:00,
2013-05-14 18:55:00,51.0,26.0,-100.00,NNW,342,4.0,15.0,37,0.00,,,0.00,291.000000,,2013-05-14 22:55:00,
2013-05-14 19:02:00,49.0,25.0,-100.00,WSW,246,3.0,8.0,39,0.00,,,0.00,104.000000,,2013-05-14 23:02:00,
2013-05-14 19:32:00,49.0,25.0,-100.00,WSW,246,3.0,8.0,39,0.00,,,0.00,104.000000,,2013-05-14 23:32:00,
2013-05-14 19:44:00,49.0,25.0,-100.00,WSW,246,3.0,8.0,39,0.00,,,0.00,104.000000,,2013-05-14 23:44:00,
2013-05-14 19:53:00,49.0,25.0,-100.00,WSW,246,3.0,8.0,39,0.00,,,0.00,104.000000,,2013-05-14 23:53:00,
2013-05-14 20:32:00,44.0,27.0,-100.00,East,81,0.0,7.0,50,0.00,,,0.00,36.000000,,2013-05-15 00:32:00,
2013-05-14 20:42:00,44.0,27.0,-100.00,East,81,0.0,7.0,50,0.00,,,0.00,36.000000,,2013-05-15 00:42:00,
2013-05-14 20:52:00,44.0,27.0,-100.00,East,81,0.0,7.0,50,0.00,,,0.00,36.000000,,2013-05-15 00:52:00,
2013-05-14 21:01:00,44.0,27.0,-100.00,East,81,0.0,7.0,50,0.00,,,0.00,36.000000,,2013-05-15 01:01:00,
2013-05-14 21:02:00,38.0,28.0,-100.00,ENE,64,0.0,2.0,66,0.00,,,0.00,2.000000,,2013-05-15 01:02:00,
2013-05-14 21:22:00,38.0,28.0,-100.00,ENE,64,0.0,2.0,66,0.00,,,0.00,2.000000,,2013-05-15 01:22:00,
2013-05-14 21:32:00,38.0,28.0,-100.00,ENE,64,0.0,2.0,66,0.00,,,0.00,2.000000,,2013-05-15 01:32:00,
2013-05-14 21:42:00,38.0,28.0,-100.00,ENE,64,0.0,2.0,66,0.00,,,0.00,2.000000,,2013-05-15 01:42:00,
2013-05-14 21:52:00,38.0,28.0,-100.00,ENE,64,0.0,2.0,66,0.00,,,0.00,2.000000,,2013-05-15 01:52:00,
2013-05-14 22:22:00,34.0,28.0,-100.00,ENE,73,0.0,1.0,78,0.00,,,0.00,1.000000,,2013-05-15 02:22:00,
2013-05-14 22:32:00,34.0,28.0,-100.00,ENE,73,0.0,1.0,78,0.00,,,0.00,1.000000,,2013-05-15 02:32:00,
2013-05-14 22:42:00,34.0,28.0,-100.00,ENE,73,0.0,1.0,78,0.00,,,0.00,1.000000,,2013-05-15 02:42:00,
2013-05-14 22:52:00,34.0,28.0,-100.00,ENE,73,0.0,1.0,78,0.00,,,0.00,1.000000,,2013-05-15 02:52:00,
2013-05-14 23:01:00,34.0,28.0,-100.00,ENE,73,0.0,1.0,78,0.00,,,0.00,1.000000,,2013-05-15 03:01:00,
2013-05-14 23:02:00,32.0,28.0,-100.00,ENE,70,0.0,0.0,85,0.00,,,0.00,1.000000,,2013-05-15 03:02:00,
2013-05-14 23:33:00,32.0,28.0,-100.00,ENE,70,0.0,0.0,85,0.00,,,0.00,1.000000,,2013-05-15 03:33:00,
2013-05-14 23:44:00,32.0,28.0,-100.00,ENE,70,0.0,0.0,85,0.00,,,0.00,1.000000,,2013-05-15 03:44:00,
2013-05-14 23:54:00,32.0,28.0,-100.00,ENE,70,0.0,0.0,85,0.00,,,0.00,1.000000,,2013-05-15 03:54:00,